Flight Information

DEPARTURE
BURBANK, CA
Elevation:
778
Runways:
15/33 - 6886x150 - ASPH-CONC-E
8/26 - 5802x150 - ASPH-CONC-E
Active PE Departure:
8 - 15
Current PE ATIS:
S
Altimeter:
29.81
Remarks:
LAND AND HOLD SHORT OPERATIONS IN EFFECT FOR NON TURBO JET AIRCRAFT LANDING RUNWAY 1 5. 4250 FEET AVAILABLE. V F R DEPARTURES CONTACT CLEARANCE DELIVERY, ADVISE ON COURSE HEADING, ALTITUDE, AND IF FLIGHT FOLLOWING IS REQUESTED.
ATIS:
135.125 818-843-6633
Clearance Delivery:
118
Ground:
123.9
Tower:
BURBANK TOWER 118.7 132.325 (Helicopters)
DESTINATION
LAS VEGAS, NV
Elevation:
2181
TPA:
3181 (est.)
Runways:
1L/19R - 8988x150 - CONC-G
1R/19L - 9771x150 - CONC-G
8L/26R - 14515x150 - CONC-G
8R/26L - 10526x150 - CONC-E
Active PE Arriving:
19L - 19R - 26L
Active PE Approach:
VISUAL APPROACHES IN USE
Current PE ATIS:
G
Altimeter:
29.74
Remarks:
V F R DEPARTURES CONTACT CLEARANCE DELIVERY, ADVISE ON COURSE HEADING, ALTITUDE, AND IF FLIGHT FOLLOWING IS REQUESTED.
ATIS:
132.4 702-736-0950
Tower:
LAS VEGAS TOWER 119.9
Ground:
121.9 (West of Rwy 01R-19L) 121.1 (East of Rwy 01R-19L)


193.5 NM53° True-14° Var39° HDG

Flight Plan:
(click to file on line)

1. Type
2. Aircraft Identification
3. Aircraft Type / Special Equipment
4. True Airspeed
kts
5. Departure Airport
(ICAO code)
6. Arriving Airport
(ICAO code)
7. Cruising Altitude
ft
8. Alternate Airport
(ICAO code)
9. Route of Flight
10. Remarks


00:00:00 Departure ATIS: Destination ATIS:

Clearance Limit:
Route:
Altitude: Expect in minutes
Frequency:
Transponder: (7500 Hijack / 7600 Lost Comms / 7700 Emergency)


KBUR 110253Z 13006KT 10SM CLR 19/08 A2981 RMK AO2 SLP085 T01890078 53002 $
Time: 2021-04-11T02:53:00Z
1618112320
Winds: 130 @ 6 kts
Visibility: 10.0 sm
Clouds (AGL): CLR
Temperature: 18.9 C
Dew Point: 7.8 C
Pressure: 29.811024 in Hgbr

KLAS 110256Z 26007KT 10SM FEW250 27/M17 A2974 RMK AO2 SLP049 T02721172 55003
Time: 2021-04-11T02:56:00Z
1618112320
Winds: 260 @ 7 kts
Visibility: 10.0 sm
Clouds (AGL): FEW 25000
Temperature: 27.2 C
Dew Point: -17.2 C
Pressure: 29.740158 in Hgbr


Notes:

Data extracted from FAA Digital Chart Supplement. Effective: 0901Z Thursday, Feb 25, 2021 to 0901Z Thursday, APR 22, 2021
Current ATIS data is provided courtisy of PilotEdge.